Time;durP1;ratioP1;P1;durP2;ratioP2;P2;SDS_P1;SDS_P2;PMS_P1;PMS_P2;Temp;Humidity;BMP_temperature;BMP_pressure;BME280_temperature;BME280_humidity;BME280_pressure;Samples;Min_cycle;Max_cycle;Signal;HPM_P1;HPM_P2
2020/12/28 00:02:10;;;;;;;9.57;8.02;;;4.60;99.90;;;;;;5065766;28;20074;-79
2020/12/28 00:04:36;;;;;;;8.85;7.95;;;4.50;99.90;;;;;;5064965;28;20089;-79
2020/12/28 00:07:04;;;;;;;8.73;7.90;;;4.50;99.90;;;;;;5066659;28;20043;-79
2020/12/28 00:09:30;;;;;;;10.02;7.68;;;4.50;99.90;;;;;;5066789;28;20055;-79
2020/12/28 00:11:57;;;;;;;9.75;8.27;;;4.50;99.90;;;;;;5086752;28;20451;-79
2020/12/28 00:14:24;;;;;;;8.98;8.07;;;4.50;99.90;;;;;;5066398;28;20086;-79
2020/12/28 00:16:51;;;;;;;9.32;8.43;;;4.60;99.90;;;;;;5084668;28;20147;-82
2020/12/28 00:19:17;;;;;;;9.60;8.60;;;4.50;99.90;;;;;;5085310;28;20048;-80
2020/12/28 00:21:43;;;;;;;9.30;8.38;;;4.60;99.90;;;;;;5089320;28;20059;-80
2020/12/28 00:24:10;;;;;;;10.02;8.73;;;4.50;99.90;;;;;;5073812;28;20079;-79
2020/12/28 00:26:37;;;;;;;10.90;9.02;;;4.60;99.90;;;;;;5068991;28;20052;-80
2020/12/28 00:29:04;;;;;;;9.77;8.75;;;4.60;99.90;;;;;;5083080;28;20071;-80
2020/12/28 00:31:30;;;;;;;10.52;9.25;;;4.60;99.90;;;;;;5088350;28;20045;-80
2020/12/28 00:33:56;;;;;;;11.25;8.65;;;4.60;99.90;;;;;;5075015;28;20033;-80
2020/12/28 00:36:22;;;;;;;9.98;8.95;;;4.70;99.90;;;;;;5065850;28;20078;-80
2020/12/28 00:38:47;;;;;;;9.50;8.57;;;4.60;99.90;;;;;;5071130;28;20280;-80
2020/12/28 00:41:13;;;;;;;11.43;8.90;;;4.60;99.90;;;;;;5073628;28;20115;-80
2020/12/28 00:43:41;;;;;;;9.27;8.32;;;4.60;99.90;;;;;;5072448;28;20044;-80
2020/12/28 00:46:08;;;;;;;10.07;8.40;;;4.60;99.90;;;;;;5083477;28;20058;-80
2020/12/28 00:48:34;;;;;;;10.57;9.20;;;4.60;99.90;;;;;;5072270;28;20066;-80
2020/12/28 00:51:00;;;;;;;9.85;8.85;;;4.60;99.90;;;;;;5072726;28;22039;-80
2020/12/28 00:53:26;;;;;;;11.15;9.25;;;4.60;99.90;;;;;;5090571;28;20036;-80
2020/12/28 00:55:52;;;;;;;10.80;8.75;;;4.60;99.90;;;;;;5088168;28;20117;-80
2020/12/28 00:58:18;;;;;;;11.10;9.40;;;4.60;99.90;;;;;;5091824;28;20111;-80
2020/12/28 01:00:44;;;;;;;9.65;8.52;;;4.60;99.90;;;;;;5090874;28;20051;-79
2020/12/28 01:03:09;;;;;;;10.80;9.38;;;4.60;99.90;;;;;;5072950;28;20047;-80
2020/12/28 01:05:35;;;;;;;10.88;9.57;;;4.50;99.90;;;;;;5093274;28;20554;-80
2020/12/28 01:08:01;;;;;;;11.57;9.30;;;4.60;99.90;;;;;;5089120;28;20205;-80
2020/12/28 01:10:26;;;;;;;14.52;9.18;;;4.60;99.90;;;;;;5067927;28;20391;-80
2020/12/28 01:12:52;;;;;;;10.00;8.90;;;4.60;99.90;;;;;;5072425;28;20047;-80
2020/12/28 01:15:18;;;;;;;10.15;9.07;;;4.60;99.90;;;;;;5074011;28;20044;-80
2020/12/28 01:17:44;;;;;;;10.13;9.10;;;4.60;99.90;;;;;;5090055;28;20051;-80
2020/12/28 01:20:09;;;;;;;10.88;9.77;;;4.60;99.90;;;;;;5083083;28;20669;-80
2020/12/28 01:22:35;;;;;;;10.43;9.32;;;4.60;99.90;;;;;;5043820;28;20482;-80
2020/12/28 01:25:01;;;;;;;12.10;9.75;;;4.50;99.90;;;;;;5086599;28;20135;-80
2020/12/28 01:27:27;;;;;;;12.45;9.77;;;4.60;99.90;;;;;;5092536;28;20039;-80
2020/12/28 01:29:52;;;;;;;10.85;9.73;;;4.50;99.90;;;;;;5089115;28;20040;-81
2020/12/28 01:32:18;;;;;;;12.50;10.80;;;4.50;99.90;;;;;;5048893;28;20046;-80
2020/12/28 01:34:44;;;;;;;12.48;10.57;;;4.50;99.90;;;;;;5092418;28;20064;-80
2020/12/28 01:37:10;;;;;;;10.57;9.43;;;4.60;99.90;;;;;;5087546;28;21028;-80
2020/12/28 01:39:36;;;;;;;12.90;9.95;;;4.50;99.90;;;;;;5088102;28;20131;-80
2020/12/28 01:42:02;;;;;;;14.80;9.63;;;4.50;99.90;;;;;;5085766;28;20531;-80
2020/12/28 01:44:28;;;;;;;12.65;11.00;;;4.50;99.90;;;;;;5070582;28;20179;-80
2020/12/28 01:46:54;;;;;;;13.00;10.57;;;4.50;99.90;;;;;;5093253;28;20123;-80
2020/12/28 01:49:20;;;;;;;12.60;11.30;;;4.40;99.90;;;;;;5058274;28;20048;-80
2020/12/28 01:51:46;;;;;;;13.88;11.85;;;4.50;99.90;;;;;;5076023;28;20437;-81
2020/12/28 01:54:12;;;;;;;18.23;12.05;;;4.50;99.90;;;;;;5067811;28;20075;-80
2020/12/28 01:56:39;;;;;;;14.90;12.68;;;4.50;99.90;;;;;;5094945;28;20474;-80
2020/12/28 01:59:05;;;;;;;14.25;12.15;;;4.50;99.90;;;;;;5076561;28;20463;-80
2020/12/28 02:01:39;;;;;;;15.35;12.38;;;4.50;99.90;;;;;;5076696;28;20044;-81
2020/12/28 02:04:06;;;;;;;15.38;12.25;;;4.60;99.90;;;;;;5071704;28;20127;-80
2020/12/28 02:06:32;;;;;;;15.77;12.52;;;4.50;99.90;;;;;;5096799;28;20161;-81
2020/12/28 02:08:58;;;;;;;15.68;14.02;;;4.50;99.90;;;;;;5077442;28;20044;-80
2020/12/28 02:11:27;;;;;;;15.10;12.60;;;4.50;99.90;;;;;;5095239;28;20040;-80
2020/12/28 02:13:52;;;;;;;17.90;14.02;;;4.40;99.90;;;;;;5062034;28;20047;-80
2020/12/28 02:16:18;;;;;;;20.20;14.63;;;4.50;99.90;;;;;;5090236;28;20036;-80
2020/12/28 02:18:44;;;;;;;19.98;14.38;;;4.40;99.90;;;;;;5098414;28;20040;-80
2020/12/28 02:21:10;;;;;;;20.08;14.50;;;4.50;99.90;;;;;;5072383;28;20052;-80
2020/12/28 02:23:35;;;;;;;26.00;16.35;;;4.40;99.90;;;;;;5072216;28;20130;-80
2020/12/28 02:26:01;;;;;;;21.38;15.48;;;4.40;99.90;;;;;;5063760;28;20036;-80
2020/12/28 02:28:27;;;;;;;19.13;14.88;;;4.40;99.90;;;;;;5082457;28;20044;-80
2020/12/28 02:30:53;;;;;;;19.05;16.05;;;4.40;99.90;;;;;;5092639;28;20044;-80
2020/12/28 02:33:18;;;;;;;20.90;15.20;;;4.40;99.90;;;;;;5090103;28;20040;-80
2020/12/28 02:35:44;;;;;;;19.83;15.40;;;4.40;99.90;;;;;;5068496;28;20173;-80
2020/12/28 02:38:10;;;;;;;20.42;15.18;;;4.40;99.90;;;;;;5098088;28;20040;-80
2020/12/28 02:40:36;;;;;;;22.15;15.60;;;4.50;99.90;;;;;;5093456;28;20453;-80
2020/12/28 02:43:01;;;;;;;21.85;16.05;;;4.40;99.90;;;;;;5096702;28;20048;-80
2020/12/28 02:45:28;;;;;;;19.60;16.33;;;4.40;99.90;;;;;;5070267;28;20040;-80
2020/12/28 02:47:53;;;;;;;20.40;16.25;;;4.40;99.90;;;;;;5089767;28;20097;-80
2020/12/28 02:50:19;;;;;;;21.98;16.45;;;4.40;99.90;;;;;;5073746;28;20456;-80
2020/12/28 02:52:45;;;;;;;22.08;17.25;;;4.40;99.90;;;;;;5096182;28;20039;-80
2020/12/28 02:55:11;;;;;;;21.15;16.60;;;4.40;99.90;;;;;;5087767;28;20031;-81
2020/12/28 02:57:38;;;;;;;22.13;17.30;;;4.40;99.90;;;;;;5085728;28;20487;-80
2020/12/28 03:00:05;;;;;;;28.45;19.17;;;4.50;99.90;;;;;;5087246;28;20028;-80
2020/12/28 03:02:31;;;;;;;21.80;16.75;;;4.40;99.90;;;;;;5074164;28;20253;-81
2020/12/28 03:04:57;;;;;;;24.90;17.73;;;4.40;99.90;;;;;;5078979;28;20054;-80
2020/12/28 03:07:23;;;;;;;23.98;18.20;;;4.40;99.90;;;;;;5095464;28;20045;-81
2020/12/28 03:09:48;;;;;;;22.40;17.00;;;4.50;99.90;;;;;;5085017;28;20080;-81
2020/12/28 03:12:14;;;;;;;22.88;17.90;;;4.50;99.90;;;;;;5059115;28;20048;-80
2020/12/28 03:14:40;;;;;;;23.75;18.40;;;4.40;99.90;;;;;;5074860;28;20070;-81
2020/12/28 03:17:06;;;;;;;25.88;18.80;;;4.40;99.90;;;;;;5077379;28;20048;-81
2020/12/28 03:19:32;;;;;;;21.52;17.38;;;4.40;99.90;;;;;;5090617;28;20133;-80
2020/12/28 03:21:58;;;;;;;22.55;17.80;;;4.50;99.90;;;;;;5088932;28;20056;-81
2020/12/28 03:24:23;;;;;;;25.10;17.98;;;4.40;99.90;;;;;;5073324;28;20044;-81
2020/12/28 03:26:49;;;;;;;23.77;17.80;;;4.40;99.90;;;;;;5088208;28;20047;-80
2020/12/28 03:29:15;;;;;;;20.98;16.48;;;4.50;99.90;;;;;;5073418;28;20101;-80
2020/12/28 03:31:41;;;;;;;21.30;17.27;;;4.40;99.90;;;;;;5055257;28;20044;-79
2020/12/28 03:34:08;;;;;;;27.65;18.63;;;4.40;99.90;;;;;;5069749;28;20040;-79
2020/12/28 03:36:34;;;;;;;21.98;17.05;;;4.50;99.90;;;;;;5074226;28;20061;-80
2020/12/28 03:39:00;;;;;;;24.35;17.63;;;4.40;99.90;;;;;;5072818;28;20047;-79
2020/12/28 03:41:26;;;;;;;22.52;17.13;;;4.50;99.90;;;;;;5092004;28;20043;-79
2020/12/28 03:43:52;;;;;;;21.67;16.70;;;4.40;99.90;;;;;;5068260;28;20097;-79
2020/12/28 03:46:18;;;;;;;22.50;17.15;;;4.50;99.90;;;;;;5093459;28;20371;-80
2020/12/28 03:48:44;;;;;;;24.23;17.63;;;4.50;99.90;;;;;;5093749;28;20031;-80
2020/12/28 03:51:09;;;;;;;24.02;17.25;;;4.50;99.90;;;;;;5070584;28;20066;-80
2020/12/28 03:53:35;;;;;;;21.92;16.98;;;4.50;99.90;;;;;;5067449;28;20048;-80
2020/12/28 03:56:01;;;;;;;22.77;16.50;;;4.50;99.90;;;;;;5094136;28;20067;-80
2020/12/28 03:58:26;;;;;;;23.45;17.67;;;4.50;99.90;;;;;;5073765;28;20036;-80
2020/12/28 04:00:52;;;;;;;22.25;17.75;;;4.50;99.90;;;;;;5074326;28;20035;-80
2020/12/28 04:03:17;;;;;;;24.33;17.88;;;4.50;99.90;;;;;;5069934;28;20071;-80
2020/12/28 04:05:43;;;;;;;20.65;17.38;;;4.50;99.90;;;;;;5092981;28;20103;-80
2020/12/28 04:08:09;;;;;;;26.67;18.33;;;4.50;99.90;;;;;;5090069;28;20039;-80
2020/12/28 04:10:35;;;;;;;23.98;17.40;;;4.40;99.90;;;;;;5092250;28;20040;-80
2020/12/28 04:13:01;;;;;;;21.20;17.02;;;4.40;99.90;;;;;;5075080;28;20036;-80
2020/12/28 04:15:27;;;;;;;23.85;19.10;;;4.40;99.90;;;;;;5071455;28;20455;-80
2020/12/28 04:17:53;;;;;;;26.80;19.17;;;4.40;99.90;;;;;;5077851;28;20043;-80
2020/12/28 04:20:19;;;;;;;22.17;18.23;;;4.40;99.90;;;;;;5092631;28;20043;-80
2020/12/28 04:22:45;;;;;;;22.85;18.38;;;4.40;99.90;;;;;;5066095;28;20044;-80
2020/12/28 04:25:17;;;;;;;23.83;17.75;;;4.40;99.90;;;;;;5089171;28;20032;-80
2020/12/28 04:27:43;;;;;;;24.85;17.60;;;4.40;99.90;;;;;;5072088;28;20043;-80
2020/12/28 04:30:09;;;;;;;21.63;17.77;;;4.40;99.90;;;;;;5086459;28;20411;-80
2020/12/28 04:32:35;;;;;;;23.75;19.35;;;4.40;99.90;;;;;;5053296;28;20044;-80
2020/12/28 04:35:01;;;;;;;22.77;17.88;;;4.40;99.90;;;;;;5055721;28;20043;-80
2020/12/28 04:37:27;;;;;;;26.02;18.48;;;4.40;99.90;;;;;;5095302;28;20042;-80
2020/12/28 04:39:53;;;;;;;22.45;17.88;;;4.40;99.90;;;;;;5074821;28;20153;-80
2020/12/28 04:42:29;;;;;;;25.75;18.80;;;4.40;99.90;;;;;;5076646;28;20343;-80
2020/12/28 04:44:55;;;;;;;29.50;20.02;;;4.40;99.90;;;;;;5069792;28;20047;-80
2020/12/28 04:47:22;;;;;;;24.25;18.83;;;4.40;99.90;;;;;;5071867;28;20136;-80
2020/12/28 04:49:48;;;;;;;22.02;18.00;;;4.40;99.90;;;;;;5074469;28;20510;-80
2020/12/28 04:52:15;;;;;;;23.33;18.40;;;4.40;99.90;;;;;;5092574;28;20064;-80
2020/12/28 04:54:42;;;;;;;24.30;18.80;;;4.40;99.90;;;;;;5068068;28;20179;-80
2020/12/28 04:57:11;;;;;;;27.02;18.88;;;4.40;99.90;;;;;;5074661;28;20127;-80
2020/12/28 04:59:37;;;;;;;25.17;19.90;;;4.40;99.90;;;;;;5064600;28;20059;-80
2020/12/28 05:02:03;;;;;;;22.80;18.30;;;4.40;99.90;;;;;;5068334;28;20134;-80
2020/12/28 05:04:29;;;;;;;25.75;19.60;;;4.40;99.90;;;;;;5071579;28;20046;-80
2020/12/28 05:06:56;;;;;;;26.40;18.45;;;4.40;99.90;;;;;;5087746;28;20617;-80
2020/12/28 05:09:21;;;;;;;24.67;17.60;;;4.40;99.90;;;;;;5094655;28;20638;-80
2020/12/28 05:12:00;;;;;;;30.10;18.65;;;4.40;99.90;;;;;;5078184;28;20138;-80
2020/12/28 05:14:27;;;;;;;23.48;17.92;;;4.40;99.90;;;;;;5033314;28;20055;-80
2020/12/28 05:17:03;;;;;;;25.15;17.38;;;4.40;99.90;;;;;;5080763;28;20044;-80
2020/12/28 05:19:29;;;;;;;27.35;18.38;;;4.40;99.90;;;;;;5071528;28;20048;-80
2020/12/28 05:21:56;;;;;;;25.10;18.00;;;4.40;99.90;;;;;;5091678;28;20447;-80
2020/12/28 05:24:23;;;;;;;18.35;16.13;;;4.40;99.90;;;;;;5067465;28;20044;-80
2020/12/28 05:26:50;;;;;;;20.45;17.02;;;4.40;99.90;;;;;;5041377;28;20070;-80
2020/12/28 05:29:22;;;;;;;24.92;16.83;;;4.40;99.90;;;;;;5080695;28;20090;-80
2020/12/28 05:31:51;;;;;;;23.13;17.15;;;4.40;99.90;;;;;;5072169;28;20040;-80
2020/12/28 05:34:25;;;;;;;31.40;18.95;;;4.60;99.90;;;;;;5093441;28;20092;-80
2020/12/28 05:36:54;;;;;;;19.00;16.15;;;4.30;99.90;;;;;;5085180;28;20043;-80
2020/12/28 05:39:21;;;;;;;21.73;17.50;;;4.30;99.90;;;;;;5072103;28;20523;-80
2020/12/28 05:42:07;;;;;;;24.42;18.55;;;4.40;99.90;;;;;;5057321;28;20109;-80
2020/12/28 05:44:34;;;;;;;27.70;18.80;;;4.30;99.90;;;;;;5089002;28;20044;-80
2020/12/28 05:47:06;;;;;;;21.63;17.92;;;4.50;99.90;;;;;;5086872;28;20044;-80
2020/12/28 05:49:40;;;;;;;21.63;16.90;;;4.40;99.90;;;;;;5068892;28;20047;-80
2020/12/28 05:52:08;;;;;;;22.10;17.70;;;4.40;99.90;;;;;;5076617;28;21907;-80
2020/12/28 05:54:35;;;;;;;23.25;17.30;;;4.40;99.90;;;;;;5072506;28;20461;-80
2020/12/28 05:57:02;;;;;;;23.48;17.85;;;4.50;99.90;;;;;;5067929;28;20043;-79
2020/12/28 05:59:30;;;;;;;23.98;18.10;;;4.40;99.90;;;;;;5092612;28;20040;-81
2020/12/28 06:01:57;;;;;;;23.20;18.42;;;4.40;99.90;;;;;;5059910;28;20064;-79
2020/12/28 06:04:24;;;;;;;24.75;18.58;;;4.50;99.90;;;;;;5083741;28;20144;-79
2020/12/28 06:06:56;;;;;;;23.48;17.63;;;4.40;99.90;;;;;;5065624;28;20076;-79
2020/12/28 06:09:23;;;;;;;25.20;17.92;;;4.40;99.90;;;;;;5040979;28;20499;-80
2020/12/28 06:11:48;;;;;;;23.48;17.63;;;4.40;99.90;;;;;;5060919;28;20409;-80
2020/12/28 06:14:19;;;;;;;21.83;17.70;;;4.40;99.90;;;;;;5058202;28;20498;-79
2020/12/28 06:16:46;;;;;;;21.52;18.48;;;4.40;99.90;;;;;;5084272;28;20036;-79
2020/12/28 06:19:25;;;;;;;30.75;18.85;;;4.40;99.90;;;;;;5082892;28;20040;-78
2020/12/28 06:21:51;;;;;;;24.80;18.98;;;4.40;99.90;;;;;;5090198;28;20439;-79
2020/12/28 06:24:31;;;;;;;25.42;18.90;;;4.40;99.90;;;;;;5073303;28;20047;-80
2020/12/28 06:27:00;;;;;;;27.23;18.83;;;4.40;99.90;;;;;;5089853;28;20744;-79
2020/12/28 06:29:26;;;;;;;30.67;19.65;;;4.30;99.90;;;;;;5072155;28;20483;-79
2020/12/28 06:31:52;;;;;;;27.52;20.05;;;4.40;99.90;;;;;;5055894;28;20044;-79
2020/12/28 06:34:19;;;;;;;28.55;19.88;;;4.30;99.90;;;;;;5053934;28;20068;-79
2020/12/28 06:36:44;;;;;;;29.85;21.05;;;4.30;99.90;;;;;;5092350;28;20032;-80
2020/12/28 06:39:11;;;;;;;27.83;20.70;;;4.30;99.90;;;;;;5075387;28;20062;-79
2020/12/28 06:41:38;;;;;;;26.33;19.23;;;4.20;99.90;;;;;;5097166;28;20038;-78
2020/12/28 06:44:04;;;;;;;26.10;20.40;;;4.30;99.90;;;;;;5098936;28;20032;-79
2020/12/28 06:46:31;;;;;;;27.95;19.75;;;4.30;99.90;;;;;;5078579;28;20032;-79
2020/12/28 06:48:58;;;;;;;31.90;20.60;;;4.30;99.90;;;;;;5098958;28;20051;-80
2020/12/28 06:51:26;;;;;;;32.67;21.75;;;4.30;99.90;;;;;;5089100;28;20036;-78
2020/12/28 06:53:56;;;;;;;29.80;19.98;;;4.20;99.90;;;;;;5065663;28;20543;-77
2020/12/28 06:56:25;;;;;;;31.45;20.88;;;4.20;99.90;;;;;;5082905;28;20036;-76
2020/12/28 06:58:59;;;;;;;29.27;20.92;;;4.30;99.90;;;;;;5084751;28;20047;-77
2020/12/28 07:01:25;;;;;;;34.15;21.80;;;4.20;99.80;;;;;;5083087;28;20043;-77
2020/12/28 07:03:52;;;;;;;32.58;20.20;;;4.20;99.70;;;;;;5065554;28;20133;-77
2020/12/28 07:06:18;;;;;;;26.88;21.70;;;4.20;99.70;;;;;;5066633;28;20052;-77
2020/12/28 07:08:45;;;;;;;31.05;21.08;;;4.20;99.70;;;;;;5064245;28;20076;-77
2020/12/28 07:11:10;;;;;;;31.25;21.02;;;4.20;99.80;;;;;;5084046;28;20036;-77
2020/12/28 07:13:36;;;;;;;30.88;21.02;;;4.20;99.60;;;;;;5051952;28;20130;-78
2020/12/28 07:16:06;;;;;;;30.38;21.40;;;4.20;99.60;;;;;;5095384;28;20406;-77
2020/12/28 07:18:32;;;;;;;27.17;19.83;;;4.20;99.60;;;;;;5091341;28;20158;-80
2020/12/28 07:20:58;;;;;;;29.67;20.77;;;4.20;99.70;;;;;;5091711;28;20051;-79
2020/12/28 07:23:29;;;;;;;23.88;17.20;;;4.20;99.50;;;;;;5072983;28;20043;-79
2020/12/28 07:26:09;;;;;;;24.70;17.77;;;4.20;98.50;;;;;;5079652;28;20031;-79
2020/12/28 07:28:36;;;;;;;28.60;19.25;;;4.20;98.50;;;;;;5067168;28;20049;-79
2020/12/28 07:31:04;;;;;;;33.22;19.95;;;4.20;99.10;;;;;;5052830;28;20060;-80
2020/12/28 07:33:30;;;;;;;30.38;18.98;;;4.20;99.20;;;;;;5092485;28;20040;-80
2020/12/28 07:36:07;;;;;;;34.05;18.92;;;4.20;99.00;;;;;;5061332;28;20474;-78
2020/12/28 07:38:33;;;;;;;27.13;17.52;;;4.20;98.90;;;;;;5093283;28;20074;-79
2020/12/28 07:40:59;;;;;;;31.02;19.23;;;4.10;99.10;;;;;;5099065;28;20114;-78
2020/12/28 07:43:27;;;;;;;25.73;17.40;;;4.10;98.90;;;;;;5094913;28;20043;-79
2020/12/28 07:45:54;;;;;;;27.60;18.63;;;4.00;98.80;;;;;;5092384;28;20070;-77
2020/12/28 07:48:24;;;;;;;28.90;19.60;;;4.00;98.90;;;;;;5096828;28;20040;-79
2020/12/28 07:50:53;;;;;;;24.25;18.35;;;3.90;98.90;;;;;;5078439;28;20067;-80
2020/12/28 07:53:25;;;;;;;25.30;18.17;;;4.00;98.80;;;;;;5093666;28;20251;-79
2020/12/28 07:56:02;;;;;;;28.25;17.25;;;3.90;98.90;;;;;;5074696;28;20048;-77
2020/12/28 07:58:38;;;;;;;27.30;17.38;;;3.80;98.60;;;;;;5070977;28;20076;-77
2020/12/28 08:01:13;;;;;;;24.73;18.42;;;3.70;98.60;;;;;;5091745;28;20036;-76
2020/12/28 08:03:49;;;;;;;21.38;16.50;;;3.60;98.60;;;;;;5072314;28;20105;-78
2020/12/28 08:06:16;;;;;;;24.88;18.75;;;3.50;98.60;;;;;;5087744;28;20136;-78
2020/12/28 08:08:42;;;;;;;26.17;19.38;;;3.40;98.80;;;;;;5090288;28;20532;-78
2020/12/28 08:11:08;;;;;;;31.40;23.08;;;3.40;98.80;;;;;;5092373;28;20114;-78
2020/12/28 08:13:35;;;;;;;39.88;24.35;;;3.30;99.10;;;;;;5092266;28;20196;-78
2020/12/28 08:16:14;;;;;;;37.20;24.45;;;3.30;99.50;;;;;;5094308;28;20035;-77
2020/12/28 08:18:45;;;;;;;38.22;23.60;;;3.30;99.80;;;;;;5090299;28;20127;-77
2020/12/28 08:21:11;;;;;;;37.08;24.25;;;3.30;99.90;;;;;;5096344;28;20059;-77
2020/12/28 08:23:37;;;;;;;35.13;24.58;;;3.40;99.90;;;;;;5090366;28;20044;-78
2020/12/28 08:26:14;;;;;;;34.10;23.67;;;3.30;99.90;;;;;;5073459;28;20056;-78
2020/12/28 08:28:40;;;;;;;28.58;21.48;;;3.40;99.90;;;;;;5090201;28;20044;-77
2020/12/28 08:31:05;;;;;;;30.90;21.50;;;3.40;99.90;;;;;;5090375;28;20394;-77
2020/12/28 08:33:31;;;;;;;33.70;23.15;;;3.40;99.90;;;;;;5089770;28;20040;-77
2020/12/28 08:35:57;;;;;;;31.85;22.38;;;3.50;99.90;;;;;;5090165;28;20343;-78
2020/12/28 08:38:33;;;;;;;34.40;23.02;;;3.50;99.90;;;;;;5089576;28;20505;-77
2020/12/28 08:40:59;;;;;;;35.17;23.50;;;3.50;99.90;;;;;;5074348;28;20179;-77
2020/12/28 08:43:25;;;;;;;43.97;23.98;;;3.60;99.90;;;;;;5070308;28;20066;-78
2020/12/28 08:46:02;;;;;;;42.78;24.92;;;3.60;99.80;;;;;;5087597;28;20052;-77
2020/12/28 08:48:28;;;;;;;25.00;17.50;;;3.70;99.90;;;;;;5078365;28;20058;-75
2020/12/28 08:50:53;;;;;;;23.95;18.63;;;5.10;99.90;;;;;;5089066;28;20043;-79
2020/12/28 08:53:23;;;;;;;24.75;19.40;;;5.30;99.90;;;;;;5071663;28;20059;-79
2020/12/28 08:56:00;;;;;;;28.25;20.95;;;4.90;98.60;;;;;;5056696;28;20052;-78
2020/12/28 08:58:25;;;;;;;28.33;19.73;;;4.60;98.50;;;;;;5069125;28;20060;-78
2020/12/28 09:00:51;;;;;;;33.83;21.27;;;4.40;98.90;;;;;;5063384;28;20037;-78
2020/12/28 09:03:17;;;;;;;26.80;20.25;;;4.20;98.90;;;;;;5092546;28;20035;-79
2020/12/28 09:05:43;;;;;;;27.40;20.45;;;4.10;99.40;;;;;;5087446;28;20089;-78
2020/12/28 09:08:08;;;;;;;29.90;21.98;;;4.00;99.60;;;;;;5090875;28;20035;-80
2020/12/28 09:10:34;;;;;;;28.73;20.33;;;4.00;99.70;;;;;;5079542;28;20063;-79
2020/12/28 09:13:00;;;;;;;31.42;20.10;;;3.90;99.90;;;;;;5071203;28;20044;-81
2020/12/28 09:15:26;;;;;;;30.40;21.20;;;3.80;99.90;;;;;;5072870;28;20043;-79
2020/12/28 09:17:51;;;;;;;28.55;20.23;;;3.80;99.90;;;;;;5075457;28;20494;-77
2020/12/28 09:20:17;;;;;;;30.67;21.73;;;3.70;99.90;;;;;;5090647;28;20047;-76
2020/12/28 09:22:43;;;;;;;31.38;21.83;;;3.70;99.90;;;;;;5067574;28;20403;-76
2020/12/28 09:25:09;;;;;;;35.30;22.23;;;3.80;99.90;;;;;;5046043;28;20129;-76
2020/12/28 09:27:35;;;;;;;36.20;22.27;;;3.90;99.90;;;;;;5062703;28;20453;-76
2020/12/28 09:30:06;;;;;;;37.45;23.27;;;3.90;99.90;;;;;;5061420;28;20039;-76
2020/12/28 09:32:32;;;;;;;39.92;23.58;;;3.90;99.90;;;;;;5059348;28;20033;-76
2020/12/28 09:34:58;;;;;;;40.03;24.27;;;4.00;99.90;;;;;;5062150;28;20047;-76
2020/12/28 09:37:24;;;;;;;38.08;24.73;;;4.00;99.90;;;;;;5061050;28;20044;-76
2020/12/28 09:39:49;;;;;;;37.60;23.05;;;4.10;99.90;;;;;;5050531;28;20040;-76
2020/12/28 09:42:15;;;;;;;30.65;22.63;;;4.20;99.90;;;;;;5049296;28;20499;-76
2020/12/28 09:44:41;;;;;;;29.10;21.15;;;4.30;99.90;;;;;;5050724;28;20052;-76
2020/12/28 09:47:06;;;;;;;35.80;22.85;;;4.30;99.90;;;;;;5056229;28;20048;-76
2020/12/28 09:49:32;;;;;;;33.08;23.17;;;4.40;99.90;;;;;;5070645;28;20151;-76
2020/12/28 09:51:58;;;;;;;29.88;21.35;;;4.40;99.90;;;;;;5035144;28;20132;-77
2020/12/28 09:54:25;;;;;;;29.55;20.77;;;4.50;99.90;;;;;;5066019;28;20507;-76
2020/12/28 09:56:51;;;;;;;31.23;18.98;;;4.50;99.90;;;;;;5050109;28;20053;-76
2020/12/28 09:59:17;;;;;;;28.00;20.85;;;4.50;99.90;;;;;;5049704;28;20058;-76
2020/12/28 10:01:44;;;;;;;30.42;20.60;;;4.50;99.90;;;;;;5036697;28;20056;-76
2020/12/28 10:04:11;;;;;;;24.15;17.73;;;4.60;99.90;;;;;;5045112;28;20065;-76
2020/12/28 10:06:37;;;;;;;27.58;18.02;;;4.60;99.90;;;;;;5057387;28;20112;-76
2020/12/28 10:09:05;;;;;;;23.00;17.92;;;4.50;99.90;;;;;;5013141;28;20140;-76
2020/12/28 10:11:31;;;;;;;23.48;18.00;;;4.60;99.90;;;;;;5030739;28;20135;-76
2020/12/28 10:13:57;;;;;;;23.17;16.55;;;4.60;99.90;;;;;;5032252;28;20503;-76
2020/12/28 10:16:30;;;;;;;20.15;15.27;;;4.60;99.70;;;;;;5061639;28;20142;-76
2020/12/28 10:18:56;;;;;;;21.42;15.73;;;4.60;99.50;;;;;;5039646;28;20052;-76
2020/12/28 10:21:24;;;;;;;22.25;15.93;;;4.60;99.70;;;;;;5052860;28;20056;-81
2020/12/28 10:23:50;;;;;;;20.35;14.77;;;4.60;99.70;;;;;;5076622;28;20055;-81
2020/12/28 10:26:17;;;;;;;22.70;15.57;;;4.50;99.40;;;;;;5093276;28;20112;-82
2020/12/28 10:28:44;;;;;;;23.05;16.67;;;4.50;99.50;;;;;;5109460;28;20071;-78
2020/12/28 10:31:14;;;;;;;18.67;15.80;;;4.50;99.80;;;;;;5074245;28;20048;-76
2020/12/28 10:33:42;;;;;;;20.92;15.63;;;4.70;99.70;;;;;;5074264;28;20036;-75
2020/12/28 10:36:24;;;;;;;21.70;17.60;;;4.70;99.60;;;;;;5082783;28;20446;-76
2020/12/28 10:38:52;;;;;;;26.90;19.90;;;4.80;99.80;;;;;;5094984;28;20039;-76
2020/12/28 10:41:26;;;;;;;23.58;16.52;;;5.00;99.90;;;;;;5098388;28;20042;-78
2020/12/28 10:43:51;;;;;;;22.33;15.90;;;5.10;99.70;;;;;;5093401;28;20040;-78
2020/12/28 10:46:18;;;;;;;17.92;14.57;;;5.10;99.50;;;;;;5093690;28;20040;-80
2020/12/28 10:48:43;;;;;;;19.85;14.40;;;5.00;98.70;;;;;;5074828;28;20099;-80
2020/12/28 10:51:10;;;;;;;17.98;13.95;;;4.90;98.40;;;;;;5081338;28;20534;-78
2020/12/28 10:53:36;;;;;;;29.38;14.23;;;5.00;98.60;;;;;;5089625;28;20040;-79
2020/12/28 10:56:03;;;;;;;16.23;13.63;;;4.90;98.70;;;;;;5074134;28;20054;-79
2020/12/28 10:58:28;;;;;;;17.20;12.18;;;4.90;98.70;;;;;;5095680;28;20032;-79
2020/12/28 11:00:55;;;;;;;16.73;12.52;;;4.80;97.90;;;;;;5076264;28;20696;-79
2020/12/28 11:03:20;;;;;;;14.00;12.00;;;4.90;98.40;;;;;;5080441;28;20105;-79
2020/12/28 11:05:46;;;;;;;21.13;14.15;;;4.80;98.40;;;;;;5073557;28;20056;-79
2020/12/28 11:08:12;;;;;;;17.75;13.68;;;5.00;98.40;;;;;;5103524;28;20549;-79
2020/12/28 11:10:39;;;;;;;18.83;13.02;;;4.90;98.50;;;;;;5112632;28;20390;-80
2020/12/28 11:13:06;;;;;;;17.00;12.70;;;5.00;98.30;;;;;;5110648;28;20437;-79
2020/12/28 11:15:32;;;;;;;20.30;13.05;;;5.00;98.00;;;;;;5070029;28;20060;-80
2020/12/28 11:17:57;;;;;;;18.23;13.50;;;4.90;98.20;;;;;;5056327;28;20419;-79
2020/12/28 11:20:23;;;;;;;17.92;12.10;;;5.10;98.40;;;;;;5064718;28;20114;-79
2020/12/28 11:22:49;;;;;;;13.60;11.25;;;5.10;97.90;;;;;;5066536;28;20551;-79
2020/12/28 11:25:16;;;;;;;16.30;11.27;;;5.00;98.00;;;;;;5073458;28;20074;-79
2020/12/28 11:27:42;;;;;;;16.77;12.63;;;5.00;97.50;;;;;;5069707;28;20063;-79
2020/12/28 11:30:08;;;;;;;19.52;12.27;;;5.10;98.10;;;;;;5071104;28;20076;-79
2020/12/28 11:32:34;;;;;;;17.10;12.57;;;5.10;97.30;;;;;;5071471;28;20039;-80
2020/12/28 11:35:00;;;;;;;18.60;12.05;;;5.10;97.60;;;;;;5071170;28;20422;-80
2020/12/28 11:37:26;;;;;;;16.02;11.68;;;5.10;97.20;;;;;;5051212;28;20114;-80
2020/12/28 11:39:51;;;;;;;17.95;12.18;;;5.00;97.30;;;;;;5052636;28;20053;-80
2020/12/28 11:42:18;;;;;;;22.27;12.98;;;5.00;97.80;;;;;;5071167;28;20072;-80
2020/12/28 11:44:44;;;;;;;19.80;12.57;;;5.00;97.90;;;;;;5071226;28;20037;-80
2020/12/28 11:47:10;;;;;;;13.55;11.88;;;5.00;97.60;;;;;;5071137;28;20475;-80
2020/12/28 11:49:36;;;;;;;17.63;13.18;;;5.00;97.80;;;;;;5067855;28;20048;-80
2020/12/28 11:52:06;;;;;;;16.95;10.82;;;5.00;97.90;;;;;;5070417;28;20041;-79
2020/12/28 11:54:31;;;;;;;21.30;12.90;;;5.10;98.00;;;;;;5052322;28;20044;-80
2020/12/28 11:57:00;;;;;;;17.63;11.27;;;5.20;98.60;;;;;;5053429;28;20094;-80
2020/12/28 11:59:25;;;;;;;23.02;13.98;;;5.30;98.20;;;;;;5052093;28;20057;-80
2020/12/28 12:01:51;;;;;;;20.60;9.23;;;5.40;98.90;;;;;;5069387;28;20688;-78
2020/12/28 12:04:18;;;;;;;10.98;7.68;;;5.40;98.40;;;;;;5069190;28;20117;-80
2020/12/28 12:06:44;;;;;;;14.32;9.57;;;5.40;97.20;;;;;;5045520;28;20068;-80
2020/12/28 12:09:13;;;;;;;18.35;10.35;;;5.60;97.90;;;;;;5070858;28;20122;-80
2020/12/28 12:11:47;;;;;;;18.67;11.07;;;5.60;97.80;;;;;;5053068;28;20135;-81
2020/12/28 12:14:14;;;;;;;12.05;8.02;;;5.60;98.40;;;;;;5053275;28;20407;-80
2020/12/28 12:16:40;;;;;;;14.55;8.10;;;5.60;97.00;;;;;;5035365;28;20045;-78
2020/12/28 12:19:07;;;;;;;9.60;7.22;;;5.40;96.90;;;;;;5070641;28;20036;-76
2020/12/28 12:21:33;;;;;;;15.30;9.35;;;5.40;97.10;;;;;;5077729;28;20105;-76
2020/12/28 12:23:59;;;;;;;17.63;9.15;;;5.50;97.60;;;;;;5096189;28;20125;-76
2020/12/28 12:26:26;;;;;;;15.32;7.63;;;5.60;97.40;;;;;;5089382;28;20036;-76
2020/12/28 12:28:55;;;;;;;15.50;9.48;;;5.50;96.30;;;;;;5094028;28;20081;-82
2020/12/28 12:31:21;;;;;;;15.68;8.85;;;5.60;96.90;;;;;;5076859;28;20040;-79
2020/12/28 12:33:47;;;;;;;10.48;7.53;;;5.60;96.80;;;;;;5070809;28;20055;-79
2020/12/28 12:36:14;;;;;;;11.45;7.13;;;5.60;96.50;;;;;;5095712;28;20051;-77
2020/12/28 12:38:41;;;;;;;11.93;7.25;;;5.60;95.80;;;;;;5093162;28;20076;-79